Eller, North Carolina
Current Conditions -  °F | °C
As of 11:54 PM on Wednesday 22 Oct 2014 (Local Time) from KINT Reporting Station
Clear Clear  
Wind Chill: 50°   Ceiling: Unl
Heat Index: 50°   Visibility: 10mi
Dew Point: 38°   Wind: 8mph
Humidity: 63%   Direction: 330°NNW
Pressure: 30.08"   Gusts: NA
Location:  36.0182°N, 80.183°W
Report Text: KINT 230354Z AUTO 33007KT 10SM CLR 10/03 A3008 RMK AO2 SLP181 T01000033
Loading
Personal Weather Stations






























Interactive Weather Map
Tropical Storm Tracking
New forecast layout! Learn more

10-Day Weather Forecast

Advertisements
Track Severe Weather on mobile